sensor_id;sensor_type;location;lat;lon;timestamp;P1;durP1;ratioP1;P2;durP2;ratioP2
21943;SDS011;11136;48.778;9.126;2023-02-25T00:00:26;4.43;;;3.50;;
21943;SDS011;11136;48.778;9.126;2023-02-25T00:02:54;6.70;;;3.63;;
21943;SDS011;11136;48.778;9.126;2023-02-25T00:05:21;4.85;;;3.40;;
21943;SDS011;11136;48.778;9.126;2023-02-25T00:07:47;7.70;;;3.75;;
21943;SDS011;11136;48.778;9.126;2023-02-25T00:10:14;4.15;;;3.33;;
21943;SDS011;11136;48.778;9.126;2023-02-25T00:12:40;6.03;;;3.25;;
21943;SDS011;11136;48.778;9.126;2023-02-25T00:15:06;5.15;;;4.20;;
21943;SDS011;11136;48.778;9.126;2023-02-25T00:17:33;7.90;;;3.60;;
21943;SDS011;11136;48.778;9.126;2023-02-25T00:19:59;6.63;;;4.32;;
21943;SDS011;11136;48.778;9.126;2023-02-25T00:22:25;8.18;;;4.00;;
21943;SDS011;11136;48.778;9.126;2023-02-25T00:24:55;5.93;;;4.35;;
21943;SDS011;11136;48.778;9.126;2023-02-25T00:27:21;8.85;;;5.55;;
21943;SDS011;11136;48.778;9.126;2023-02-25T00:29:51;7.15;;;4.97;;
21943;SDS011;11136;48.778;9.126;2023-02-25T00:32:17;9.75;;;4.70;;
21943;SDS011;11136;48.778;9.126;2023-02-25T00:34:43;6.70;;;4.43;;
21943;SDS011;11136;48.778;9.126;2023-02-25T00:37:10;9.60;;;4.80;;
21943;SDS011;11136;48.778;9.126;2023-02-25T00:39:36;8.68;;;5.03;;
21943;SDS011;11136;48.778;9.126;2023-02-25T00:42:09;6.40;;;4.25;;
21943;SDS011;11136;48.778;9.126;2023-02-25T00:44:39;7.10;;;4.85;;
21943;SDS011;11136;48.778;9.126;2023-02-25T00:47:11;7.05;;;4.72;;
21943;SDS011;11136;48.778;9.126;2023-02-25T00:49:38;8.07;;;4.43;;
21943;SDS011;11136;48.778;9.126;2023-02-25T00:52:03;7.65;;;4.57;;
21943;SDS011;11136;48.778;9.126;2023-02-25T00:54:30;9.25;;;4.63;;
21943;SDS011;11136;48.778;9.126;2023-02-25T00:56:58;7.95;;;4.30;;
21943;SDS011;11136;48.778;9.126;2023-02-25T00:59:23;10.20;;;5.43;;
21943;SDS011;11136;48.778;9.126;2023-02-25T01:01:49;7.47;;;4.40;;
21943;SDS011;11136;48.778;9.126;2023-02-25T01:04:14;10.38;;;5.05;;
21943;SDS011;11136;48.778;9.126;2023-02-25T01:06:40;6.35;;;4.60;;
21943;SDS011;11136;48.778;9.126;2023-02-25T01:09:06;5.63;;;3.97;;
21943;SDS011;11136;48.778;9.126;2023-02-25T01:14:06;7.65;;;4.68;;
21943;SDS011;11136;48.778;9.126;2023-02-25T01:16:34;5.60;;;4.20;;
21943;SDS011;11136;48.778;9.126;2023-02-25T01:19:02;7.97;;;3.47;;
21943;SDS011;11136;48.778;9.126;2023-02-25T01:21:31;6.32;;;4.05;;
21943;SDS011;11136;48.778;9.126;2023-02-25T01:24:03;6.28;;;3.83;;
21943;SDS011;11136;48.778;9.126;2023-02-25T01:26:50;6.20;;;3.15;;
21943;SDS011;11136;48.778;9.126;2023-02-25T01:29:18;6.28;;;3.78;;
21943;SDS011;11136;48.778;9.126;2023-02-25T01:31:46;8.40;;;4.00;;
21943;SDS011;11136;48.778;9.126;2023-02-25T01:34:13;7.32;;;3.55;;
21943;SDS011;11136;48.778;9.126;2023-02-25T01:36:41;8.52;;;3.30;;
21943;SDS011;11136;48.778;9.126;2023-02-25T01:39:07;7.10;;;3.60;;
21943;SDS011;11136;48.778;9.126;2023-02-25T01:41:33;5.07;;;3.17;;
21943;SDS011;11136;48.778;9.126;2023-02-25T01:46:31;4.63;;;3.20;;
21943;SDS011;11136;48.778;9.126;2023-02-25T01:48:56;7.18;;;3.50;;
21943;SDS011;11136;48.778;9.126;2023-02-25T01:51:22;10.07;;;3.22;;
21943;SDS011;11136;48.778;9.126;2023-02-25T01:53:51;4.07;;;3.05;;
21943;SDS011;11136;48.778;9.126;2023-02-25T01:56:19;4.43;;;2.70;;
21943;SDS011;11136;48.778;9.126;2023-02-25T01:58:48;4.95;;;2.97;;
21943;SDS011;11136;48.778;9.126;2023-02-25T02:01:16;3.90;;;2.67;;
21943;SDS011;11136;48.778;9.126;2023-02-25T02:03:45;4.78;;;2.75;;
21943;SDS011;11136;48.778;9.126;2023-02-25T02:06:15;7.55;;;2.38;;
21943;SDS011;11136;48.778;9.126;2023-02-25T02:08:43;3.88;;;2.10;;
21943;SDS011;11136;48.778;9.126;2023-02-25T02:11:10;4.63;;;2.17;;
21943;SDS011;11136;48.778;9.126;2023-02-25T02:13:37;11.32;;;3.30;;
21943;SDS011;11136;48.778;9.126;2023-02-25T02:16:14;4.32;;;2.28;;
21943;SDS011;11136;48.778;9.126;2023-02-25T02:19:10;5.43;;;2.83;;
21943;SDS011;11136;48.778;9.126;2023-02-25T02:22:06;4.80;;;2.15;;
21943;SDS011;11136;48.778;9.126;2023-02-25T02:27:27;6.75;;;3.00;;
21943;SDS011;11136;48.778;9.126;2023-02-25T02:33:10;6.03;;;2.80;;
21943;SDS011;11136;48.778;9.126;2023-02-25T02:41:45;7.07;;;2.88;;
21943;SDS011;11136;48.778;9.126;2023-02-25T02:46:54;4.25;;;2.45;;
21943;SDS011;11136;48.778;9.126;2023-02-25T02:52:01;5.75;;;3.25;;
21943;SDS011;11136;48.778;9.126;2023-02-25T02:54:31;6.50;;;3.22;;
21943;SDS011;11136;48.778;9.126;2023-02-25T02:57:02;7.07;;;2.85;;
21943;SDS011;11136;48.778;9.126;2023-02-25T02:59:34;5.60;;;2.90;;
21943;SDS011;11136;48.778;9.126;2023-02-25T03:02:32;4.50;;;2.80;;
21943;SDS011;11136;48.778;9.126;2023-02-25T03:04:58;4.55;;;2.50;;
21943;SDS011;11136;48.778;9.126;2023-02-25T03:07:27;6.43;;;2.90;;
21943;SDS011;11136;48.778;9.126;2023-02-25T03:09:56;3.97;;;2.70;;
21943;SDS011;11136;48.778;9.126;2023-02-25T03:12:24;4.95;;;2.63;;
21943;SDS011;11136;48.778;9.126;2023-02-25T03:14:50;4.68;;;2.55;;
21943;SDS011;11136;48.778;9.126;2023-02-25T03:20:03;5.78;;;2.67;;
21943;SDS011;11136;48.778;9.126;2023-02-25T03:22:35;5.13;;;2.25;;
21943;SDS011;11136;48.778;9.126;2023-02-25T03:25:25;4.07;;;2.22;;
21943;SDS011;11136;48.778;9.126;2023-02-25T03:27:56;5.32;;;2.00;;
21943;SDS011;11136;48.778;9.126;2023-02-25T03:33:13;5.63;;;2.55;;
21943;SDS011;11136;48.778;9.126;2023-02-25T03:36:02;4.18;;;2.20;;
21943;SDS011;11136;48.778;9.126;2023-02-25T03:38:35;4.65;;;2.10;;
21943;SDS011;11136;48.778;9.126;2023-02-25T03:41:03;6.45;;;2.15;;
21943;SDS011;11136;48.778;9.126;2023-02-25T03:43:35;2.72;;;1.50;;
21943;SDS011;11136;48.778;9.126;2023-02-25T03:46:06;2.25;;;1.60;;
21943;SDS011;11136;48.778;9.126;2023-02-25T03:48:33;5.07;;;2.00;;
21943;SDS011;11136;48.778;9.126;2023-02-25T03:51:02;2.47;;;1.42;;
21943;SDS011;11136;48.778;9.126;2023-02-25T03:53:29;2.40;;;1.58;;
21943;SDS011;11136;48.778;9.126;2023-02-25T03:55:56;3.03;;;1.58;;
21943;SDS011;11136;48.778;9.126;2023-02-25T03:58:24;3.35;;;1.70;;
21943;SDS011;11136;48.778;9.126;2023-02-25T04:00:51;3.70;;;1.52;;
21943;SDS011;11136;48.778;9.126;2023-02-25T04:03:21;2.63;;;1.30;;
21943;SDS011;11136;48.778;9.126;2023-02-25T04:05:47;8.32;;;1.60;;
21943;SDS011;11136;48.778;9.126;2023-02-25T04:08:13;4.28;;;1.40;;
21943;SDS011;11136;48.778;9.126;2023-02-25T04:10:42;3.42;;;1.35;;
21943;SDS011;11136;48.778;9.126;2023-02-25T04:13:08;3.67;;;1.50;;
21943;SDS011;11136;48.778;9.126;2023-02-25T04:15:34;8.02;;;2.13;;
21943;SDS011;11136;48.778;9.126;2023-02-25T04:18:01;7.18;;;1.83;;
21943;SDS011;11136;48.778;9.126;2023-02-25T04:20:27;6.03;;;1.20;;
21943;SDS011;11136;48.778;9.126;2023-02-25T04:22:57;1.33;;;1.15;;
21943;SDS011;11136;48.778;9.126;2023-02-25T04:25:23;3.95;;;1.30;;
21943;SDS011;11136;48.778;9.126;2023-02-25T04:27:49;3.47;;;1.20;;
21943;SDS011;11136;48.778;9.126;2023-02-25T04:30:14;6.47;;;1.55;;
21943;SDS011;11136;48.778;9.126;2023-02-25T04:32:41;4.35;;;1.55;;
21943;SDS011;11136;48.778;9.126;2023-02-25T04:35:06;7.45;;;1.85;;
21943;SDS011;11136;48.778;9.126;2023-02-25T04:37:39;4.60;;;1.52;;
21943;SDS011;11136;48.778;9.126;2023-02-25T04:40:06;3.05;;;1.65;;
21943;SDS011;11136;48.778;9.126;2023-02-25T04:42:37;3.47;;;1.80;;
21943;SDS011;11136;48.778;9.126;2023-02-25T04:45:05;5.72;;;1.73;;
21943;SDS011;11136;48.778;9.126;2023-02-25T04:47:32;3.45;;;1.67;;
21943;SDS011;11136;48.778;9.126;2023-02-25T04:49:58;5.90;;;1.52;;
21943;SDS011;11136;48.778;9.126;2023-02-25T04:52:23;5.18;;;1.50;;
21943;SDS011;11136;48.778;9.126;2023-02-25T04:54:49;7.63;;;2.03;;
21943;SDS011;11136;48.778;9.126;2023-02-25T04:57:15;3.53;;;1.35;;
21943;SDS011;11136;48.778;9.126;2023-02-25T04:59:40;3.33;;;1.50;;
21943;SDS011;11136;48.778;9.126;2023-02-25T05:02:06;4.30;;;1.70;;
21943;SDS011;11136;48.778;9.126;2023-02-25T05:04:34;3.72;;;1.58;;
21943;SDS011;11136;48.778;9.126;2023-02-25T05:07:01;7.22;;;1.40;;
21943;SDS011;11136;48.778;9.126;2023-02-25T05:09:28;7.22;;;1.48;;
21943;SDS011;11136;48.778;9.126;2023-02-25T05:11:53;7.35;;;1.73;;
21943;SDS011;11136;48.778;9.126;2023-02-25T05:14:19;3.13;;;1.50;;
21943;SDS011;11136;48.778;9.126;2023-02-25T05:16:45;6.00;;;1.40;;
21943;SDS011;11136;48.778;9.126;2023-02-25T05:19:16;3.20;;;1.48;;
21943;SDS011;11136;48.778;9.126;2023-02-25T05:21:50;2.88;;;1.05;;
21943;SDS011;11136;48.778;9.126;2023-02-25T05:24:16;2.83;;;1.00;;
21943;SDS011;11136;48.778;9.126;2023-02-25T05:26:42;2.05;;;1.13;;
21943;SDS011;11136;48.778;9.126;2023-02-25T05:29:08;2.45;;;1.20;;
21943;SDS011;11136;48.778;9.126;2023-02-25T05:31:36;2.80;;;0.88;;
21943;SDS011;11136;48.778;9.126;2023-02-25T05:34:02;4.70;;;1.02;;
21943;SDS011;11136;48.778;9.126;2023-02-25T05:36:28;4.82;;;1.15;;
21943;SDS011;11136;48.778;9.126;2023-02-25T05:38:54;4.15;;;0.95;;
21943;SDS011;11136;48.778;9.126;2023-02-25T05:41:22;2.28;;;1.13;;
21943;SDS011;11136;48.778;9.126;2023-02-25T05:43:49;5.80;;;1.20;;
21943;SDS011;11136;48.778;9.126;2023-02-25T05:46:15;5.93;;;0.93;;
21943;SDS011;11136;48.778;9.126;2023-02-25T05:48:41;2.60;;;0.95;;
21943;SDS011;11136;48.778;9.126;2023-02-25T05:51:10;8.57;;;1.45;;
21943;SDS011;11136;48.778;9.126;2023-02-25T05:53:38;3.85;;;1.05;;
21943;SDS011;11136;48.778;9.126;2023-02-25T05:56:05;3.90;;;1.05;;
21943;SDS011;11136;48.778;9.126;2023-02-25T05:58:31;1.95;;;0.90;;
21943;SDS011;11136;48.778;9.126;2023-02-25T06:00:58;4.97;;;1.75;;
21943;SDS011;11136;48.778;9.126;2023-02-25T06:03:23;5.20;;;1.40;;
21943;SDS011;11136;48.778;9.126;2023-02-25T06:05:49;2.40;;;1.50;;
21943;SDS011;11136;48.778;9.126;2023-02-25T06:08:17;5.30;;;1.20;;
21943;SDS011;11136;48.778;9.126;2023-02-25T06:10:43;3.45;;;1.13;;
21943;SDS011;11136;48.778;9.126;2023-02-25T06:13:09;4.90;;;1.33;;
21943;SDS011;11136;48.778;9.126;2023-02-25T06:15:36;3.15;;;1.02;;
21943;SDS011;11136;48.778;9.126;2023-02-25T06:18:02;2.10;;;0.93;;
21943;SDS011;11136;48.778;9.126;2023-02-25T06:20:28;5.82;;;1.10;;
21943;SDS011;11136;48.778;9.126;2023-02-25T06:22:54;2.75;;;0.90;;
21943;SDS011;11136;48.778;9.126;2023-02-25T06:25:19;6.85;;;1.48;;
21943;SDS011;11136;48.778;9.126;2023-02-25T06:27:45;2.58;;;1.15;;
21943;SDS011;11136;48.778;9.126;2023-02-25T06:30:11;2.70;;;0.90;;
21943;SDS011;11136;48.778;9.126;2023-02-25T06:32:37;2.50;;;1.00;;
21943;SDS011;11136;48.778;9.126;2023-02-25T06:35:03;6.40;;;1.30;;
21943;SDS011;11136;48.778;9.126;2023-02-25T06:37:30;5.20;;;1.08;;
21943;SDS011;11136;48.778;9.126;2023-02-25T06:39:56;1.58;;;1.08;;
21943;SDS011;11136;48.778;9.126;2023-02-25T06:42:22;3.03;;;1.10;;
21943;SDS011;11136;48.778;9.126;2023-02-25T06:44:48;2.95;;;1.92;;
21943;SDS011;11136;48.778;9.126;2023-02-25T06:47:14;4.22;;;1.23;;
21943;SDS011;11136;48.778;9.126;2023-02-25T06:49:40;2.08;;;0.90;;
21943;SDS011;11136;48.778;9.126;2023-02-25T06:52:05;5.45;;;1.83;;
21943;SDS011;11136;48.778;9.126;2023-02-25T06:54:32;3.85;;;1.00;;
21943;SDS011;11136;48.778;9.126;2023-02-25T06:56:58;2.80;;;1.38;;
21943;SDS011;11136;48.778;9.126;2023-02-25T06:59:25;3.63;;;1.73;;
21943;SDS011;11136;48.778;9.126;2023-02-25T07:01:52;3.13;;;0.90;;
21943;SDS011;11136;48.778;9.126;2023-02-25T07:04:18;4.63;;;1.30;;
21943;SDS011;11136;48.778;9.126;2023-02-25T07:06:44;3.35;;;1.40;;
21943;SDS011;11136;48.778;9.126;2023-02-25T07:09:10;2.35;;;1.20;;
21943;SDS011;11136;48.778;9.126;2023-02-25T07:11:36;7.30;;;1.10;;
21943;SDS011;11136;48.778;9.126;2023-02-25T07:14:02;5.38;;;1.15;;
21943;SDS011;11136;48.778;9.126;2023-02-25T07:16:29;4.50;;;1.05;;
21943;SDS011;11136;48.778;9.126;2023-02-25T07:18:55;4.00;;;1.65;;
21943;SDS011;11136;48.778;9.126;2023-02-25T07:21:21;3.35;;;1.20;;
21943;SDS011;11136;48.778;9.126;2023-02-25T07:23:47;5.60;;;1.00;;
21943;SDS011;11136;48.778;9.126;2023-02-25T07:26:14;1.15;;;0.95;;
21943;SDS011;11136;48.778;9.126;2023-02-25T07:28:40;2.22;;;1.05;;
21943;SDS011;11136;48.778;9.126;2023-02-25T07:31:11;4.97;;;1.40;;
21943;SDS011;11136;48.778;9.126;2023-02-25T07:36:05;3.90;;;0.90;;
21943;SDS011;11136;48.778;9.126;2023-02-25T07:38:32;3.08;;;1.17;;
21943;SDS011;11136;48.778;9.126;2023-02-25T07:41:02;2.63;;;1.95;;
21943;SDS011;11136;48.778;9.126;2023-02-25T07:43:29;2.53;;;1.10;;
21943;SDS011;11136;48.778;9.126;2023-02-25T07:45:55;3.08;;;0.90;;
21943;SDS011;11136;48.778;9.126;2023-02-25T07:48:22;3.47;;;1.35;;
21943;SDS011;11136;48.778;9.126;2023-02-25T07:50:47;3.75;;;1.20;;
21943;SDS011;11136;48.778;9.126;2023-02-25T07:53:13;1.95;;;1.00;;
21943;SDS011;11136;48.778;9.126;2023-02-25T07:55:41;3.60;;;1.20;;
21943;SDS011;11136;48.778;9.126;2023-02-25T07:58:10;5.40;;;1.17;;
21943;SDS011;11136;48.778;9.126;2023-02-25T08:00:37;3.97;;;1.13;;
21943;SDS011;11136;48.778;9.126;2023-02-25T08:03:04;7.28;;;0.95;;
21943;SDS011;11136;48.778;9.126;2023-02-25T08:05:35;4.03;;;1.20;;
21943;SDS011;11136;48.778;9.126;2023-02-25T08:08:01;3.22;;;1.40;;
21943;SDS011;11136;48.778;9.126;2023-02-25T08:10:28;2.97;;;1.15;;
21943;SDS011;11136;48.778;9.126;2023-02-25T08:12:54;4.65;;;1.30;;
21943;SDS011;11136;48.778;9.126;2023-02-25T08:15:20;4.82;;;1.40;;
21943;SDS011;11136;48.778;9.126;2023-02-25T08:17:46;4.18;;;1.38;;
21943;SDS011;11136;48.778;9.126;2023-02-25T08:20:15;2.50;;;1.17;;
21943;SDS011;11136;48.778;9.126;2023-02-25T08:22:41;2.20;;;1.20;;
21943;SDS011;11136;48.778;9.126;2023-02-25T08:25:07;4.13;;;1.92;;
21943;SDS011;11136;48.778;9.126;2023-02-25T08:27:33;3.72;;;0.98;;
21943;SDS011;11136;48.778;9.126;2023-02-25T08:29:59;2.95;;;1.10;;
21943;SDS011;11136;48.778;9.126;2023-02-25T08:32:25;2.33;;;1.30;;
21943;SDS011;11136;48.778;9.126;2023-02-25T08:34:51;8.55;;;1.42;;
21943;SDS011;11136;48.778;9.126;2023-02-25T08:37:17;1.98;;;0.90;;
21943;SDS011;11136;48.778;9.126;2023-02-25T08:39:43;4.50;;;1.63;;
21943;SDS011;11136;48.778;9.126;2023-02-25T08:42:10;7.60;;;1.17;;
21943;SDS011;11136;48.778;9.126;2023-02-25T08:44:36;3.65;;;1.20;;
21943;SDS011;11136;48.778;9.126;2023-02-25T08:47:02;3.00;;;1.30;;
21943;SDS011;11136;48.778;9.126;2023-02-25T08:49:29;2.47;;;1.05;;
21943;SDS011;11136;48.778;9.126;2023-02-25T08:51:56;4.65;;;1.20;;
21943;SDS011;11136;48.778;9.126;2023-02-25T08:54:21;6.72;;;1.40;;
21943;SDS011;11136;48.778;9.126;2023-02-25T08:56:48;5.18;;;1.17;;
21943;SDS011;11136;48.778;9.126;2023-02-25T08:59:14;3.83;;;1.23;;
21943;SDS011;11136;48.778;9.126;2023-02-25T09:01:40;4.00;;;1.40;;
21943;SDS011;11136;48.778;9.126;2023-02-25T09:04:20;3.58;;;1.42;;
21943;SDS011;11136;48.778;9.126;2023-02-25T09:06:47;4.70;;;1.60;;
21943;SDS011;11136;48.778;9.126;2023-02-25T09:09:17;4.22;;;1.63;;
21943;SDS011;11136;48.778;9.126;2023-02-25T09:11:43;4.60;;;1.75;;
21943;SDS011;11136;48.778;9.126;2023-02-25T09:14:10;2.70;;;1.23;;
21943;SDS011;11136;48.778;9.126;2023-02-25T09:16:36;2.25;;;1.13;;
21943;SDS011;11136;48.778;9.126;2023-02-25T09:19:02;4.63;;;1.80;;
21943;SDS011;11136;48.778;9.126;2023-02-25T09:21:28;2.40;;;1.35;;
21943;SDS011;11136;48.778;9.126;2023-02-25T09:23:54;3.83;;;1.35;;
21943;SDS011;11136;48.778;9.126;2023-02-25T09:26:20;4.03;;;1.58;;
21943;SDS011;11136;48.778;9.126;2023-02-25T09:28:46;6.47;;;1.42;;
21943;SDS011;11136;48.778;9.126;2023-02-25T09:31:12;3.70;;;1.30;;
21943;SDS011;11136;48.778;9.126;2023-02-25T09:33:39;1.83;;;1.10;;
21943;SDS011;11136;48.778;9.126;2023-02-25T09:36:16;3.50;;;1.00;;
21943;SDS011;11136;48.778;9.126;2023-02-25T09:38:43;1.55;;;0.65;;
21943;SDS011;11136;48.778;9.126;2023-02-25T09:41:16;0.50;;;0.40;;
21943;SDS011;11136;48.778;9.126;2023-02-25T09:43:42;2.92;;;0.90;;
21943;SDS011;11136;48.778;9.126;2023-02-25T09:46:10;0.50;;;0.30;;
21943;SDS011;11136;48.778;9.126;2023-02-25T09:51:20;0.68;;;0.28;;
21943;SDS011;11136;48.778;9.126;2023-02-25T09:53:54;1.23;;;0.45;;
21943;SDS011;11136;48.778;9.126;2023-02-25T09:56:32;1.02;;;0.63;;
21943;SDS011;11136;48.778;9.126;2023-02-25T09:58:59;1.73;;;0.43;;
21943;SDS011;11136;48.778;9.126;2023-02-25T10:04:12;1.13;;;0.70;;
21943;SDS011;11136;48.778;9.126;2023-02-25T10:06:46;2.15;;;0.70;;
21943;SDS011;11136;48.778;9.126;2023-02-25T10:14:42;3.60;;;0.68;;
21943;SDS011;11136;48.778;9.126;2023-02-25T10:17:34;0.80;;;0.70;;
21943;SDS011;11136;48.778;9.126;2023-02-25T10:26:01;4.90;;;1.20;;
21943;SDS011;11136;48.778;9.126;2023-02-25T10:28:35;1.73;;;0.50;;
21943;SDS011;11136;48.778;9.126;2023-02-25T10:31:07;1.92;;;0.70;;
21943;SDS011;11136;48.778;9.126;2023-02-25T10:33:37;1.65;;;0.50;;
21943;SDS011;11136;48.778;9.126;2023-02-25T10:36:09;2.00;;;0.55;;
21943;SDS011;11136;48.778;9.126;2023-02-25T10:38:49;0.90;;;0.50;;
21943;SDS011;11136;48.778;9.126;2023-02-25T10:41:17;0.52;;;0.40;;
21943;SDS011;11136;48.778;9.126;2023-02-25T10:43:46;3.13;;;0.50;;
21943;SDS011;11136;48.778;9.126;2023-02-25T10:46:16;5.95;;;0.60;;
21943;SDS011;11136;48.778;9.126;2023-02-25T10:49:14;1.35;;;0.55;;
21943;SDS011;11136;48.778;9.126;2023-02-25T10:54:48;1.58;;;0.57;;
21943;SDS011;11136;48.778;9.126;2023-02-25T10:57:16;1.92;;;0.90;;
21943;SDS011;11136;48.778;9.126;2023-02-25T10:59:59;3.08;;;1.65;;
21943;SDS011;11136;48.778;9.126;2023-02-25T11:02:29;3.20;;;0.75;;
21943;SDS011;11136;48.778;9.126;2023-02-25T11:05:05;1.33;;;0.50;;
21943;SDS011;11136;48.778;9.126;2023-02-25T11:10:11;2.20;;;0.95;;
21943;SDS011;11136;48.778;9.126;2023-02-25T11:12:41;3.60;;;0.63;;
21943;SDS011;11136;48.778;9.126;2023-02-25T11:17:54;2.80;;;0.80;;
21943;SDS011;11136;48.778;9.126;2023-02-25T11:20:27;1.80;;;0.90;;
21943;SDS011;11136;48.778;9.126;2023-02-25T11:22:55;2.65;;;0.90;;
21943;SDS011;11136;48.778;9.126;2023-02-25T11:28:02;3.17;;;0.98;;
21943;SDS011;11136;48.778;9.126;2023-02-25T11:30:38;5.57;;;1.10;;
21943;SDS011;11136;48.778;9.126;2023-02-25T11:33:21;2.38;;;0.80;;
21943;SDS011;11136;48.778;9.126;2023-02-25T11:35:58;1.48;;;0.73;;
21943;SDS011;11136;48.778;9.126;2023-02-25T11:38:32;1.35;;;1.10;;
21943;SDS011;11136;48.778;9.126;2023-02-25T11:41:02;2.30;;;0.90;;
21943;SDS011;11136;48.778;9.126;2023-02-25T11:43:38;2.00;;;1.10;;
21943;SDS011;11136;48.778;9.126;2023-02-25T11:46:05;1.17;;;0.70;;
21943;SDS011;11136;48.778;9.126;2023-02-25T11:51:16;3.85;;;1.08;;
21943;SDS011;11136;48.778;9.126;2023-02-25T12:12:37;2.63;;;0.90;;
21943;SDS011;11136;48.778;9.126;2023-02-25T12:29:16;3.78;;;0.95;;
21943;SDS011;11136;48.778;9.126;2023-02-25T12:34:47;2.85;;;1.13;;
21943;SDS011;11136;48.778;9.126;2023-02-25T12:40:51;6.13;;;1.60;;
21943;SDS011;11136;48.778;9.126;2023-02-25T12:43:31;4.25;;;1.58;;
21943;SDS011;11136;48.778;9.126;2023-02-25T12:54:08;1.60;;;1.10;;
21943;SDS011;11136;48.778;9.126;2023-02-25T12:57:20;3.17;;;1.20;;
21943;SDS011;11136;48.778;9.126;2023-02-25T13:08:41;5.75;;;1.83;;
21943;SDS011;11136;48.778;9.126;2023-02-25T13:23:10;8.15;;;1.88;;
21943;SDS011;11136;48.778;9.126;2023-02-25T13:29:10;4.97;;;2.50;;
21943;SDS011;11136;48.778;9.126;2023-02-25T13:31:51;6.80;;;2.22;;
21943;SDS011;11136;48.778;9.126;2023-02-25T13:34:42;4.80;;;2.08;;
21943;SDS011;11136;48.778;9.126;2023-02-25T13:37:39;6.60;;;1.98;;
21943;SDS011;11136;48.778;9.126;2023-02-25T13:46:17;3.58;;;1.42;;
21943;SDS011;11136;48.778;9.126;2023-02-25T13:54:13;6.55;;;1.35;;
21943;SDS011;11136;48.778;9.126;2023-02-25T14:00:29;2.75;;;1.30;;
21943;SDS011;11136;48.778;9.126;2023-02-25T14:14:02;2.45;;;1.30;;
21943;SDS011;11136;48.778;9.126;2023-02-25T14:19:37;4.80;;;2.10;;
21943;SDS011;11136;48.778;9.126;2023-02-25T14:25:03;4.05;;;1.48;;
21943;SDS011;11136;48.778;9.126;2023-02-25T14:30:39;4.25;;;1.20;;
21943;SDS011;11136;48.778;9.126;2023-02-25T14:36:02;3.63;;;1.20;;
21943;SDS011;11136;48.778;9.126;2023-02-25T14:39:04;4.82;;;1.33;;
21943;SDS011;11136;48.778;9.126;2023-02-25T14:44:39;5.60;;;1.40;;
21943;SDS011;11136;48.778;9.126;2023-02-25T14:47:22;3.65;;;1.10;;
21943;SDS011;11136;48.778;9.126;2023-02-25T14:52:59;3.13;;;1.08;;
21943;SDS011;11136;48.778;9.126;2023-02-25T15:01:38;6.18;;;1.67;;
21943;SDS011;11136;48.778;9.126;2023-02-25T15:07:54;3.63;;;1.63;;
21943;SDS011;11136;48.778;9.126;2023-02-25T15:15:47;9.52;;;1.38;;
21943;SDS011;11136;48.778;9.126;2023-02-25T15:26:52;6.15;;;1.63;;
21943;SDS011;11136;48.778;9.126;2023-02-25T15:32:09;5.97;;;2.10;;
21943;SDS011;11136;48.778;9.126;2023-02-25T15:39:55;2.58;;;1.27;;
21943;SDS011;11136;48.778;9.126;2023-02-25T15:42:41;7.65;;;1.98;;
21943;SDS011;11136;48.778;9.126;2023-02-25T15:50:49;2.53;;;1.50;;
21943;SDS011;11136;48.778;9.126;2023-02-25T16:00:54;3.75;;;1.15;;
21943;SDS011;11136;48.778;9.126;2023-02-25T16:03:43;3.08;;;1.30;;
21943;SDS011;11136;48.778;9.126;2023-02-25T16:06:10;5.25;;;1.65;;
21943;SDS011;11136;48.778;9.126;2023-02-25T16:12:01;5.93;;;1.60;;
21943;SDS011;11136;48.778;9.126;2023-02-25T16:14:30;9.65;;;2.97;;
21943;SDS011;11136;48.778;9.126;2023-02-25T16:17:02;6.53;;;2.30;;
21943;SDS011;11136;48.778;9.126;2023-02-25T16:19:35;7.28;;;2.05;;
21943;SDS011;11136;48.778;9.126;2023-02-25T16:22:10;4.18;;;2.22;;
21943;SDS011;11136;48.778;9.126;2023-02-25T16:24:42;8.13;;;2.58;;
21943;SDS011;11136;48.778;9.126;2023-02-25T16:27:24;2.97;;;1.60;;
21943;SDS011;11136;48.778;9.126;2023-02-25T16:32:41;6.53;;;1.88;;
21943;SDS011;11136;48.778;9.126;2023-02-25T16:42:54;5.97;;;1.80;;
21943;SDS011;11136;48.778;9.126;2023-02-25T16:45:23;5.13;;;2.05;;
21943;SDS011;11136;48.778;9.126;2023-02-25T16:47:58;6.88;;;2.20;;
21943;SDS011;11136;48.778;9.126;2023-02-25T16:50:29;6.35;;;2.22;;
21943;SDS011;11136;48.778;9.126;2023-02-25T16:52:58;6.40;;;1.80;;
21943;SDS011;11136;48.778;9.126;2023-02-25T16:55:28;3.85;;;1.48;;
21943;SDS011;11136;48.778;9.126;2023-02-25T16:58:00;3.42;;;1.98;;
21943;SDS011;11136;48.778;9.126;2023-02-25T17:00:29;4.05;;;1.58;;
21943;SDS011;11136;48.778;9.126;2023-02-25T17:02:57;5.35;;;1.88;;
21943;SDS011;11136;48.778;9.126;2023-02-25T17:05:29;2.75;;;1.52;;
21943;SDS011;11136;48.778;9.126;2023-02-25T17:07:58;6.57;;;2.58;;
21943;SDS011;11136;48.778;9.126;2023-02-25T17:10:30;7.45;;;1.95;;
21943;SDS011;11136;48.778;9.126;2023-02-25T17:13:35;4.72;;;1.95;;
21943;SDS011;11136;48.778;9.126;2023-02-25T17:16:04;7.03;;;1.77;;
21943;SDS011;11136;48.778;9.126;2023-02-25T17:18:52;7.38;;;2.30;;
21943;SDS011;11136;48.778;9.126;2023-02-25T17:23:58;9.18;;;4.05;;
21943;SDS011;11136;48.778;9.126;2023-02-25T17:26:26;6.85;;;2.83;;
21943;SDS011;11136;48.778;9.126;2023-02-25T17:28:54;8.82;;;2.80;;
21943;SDS011;11136;48.778;9.126;2023-02-25T17:31:23;6.82;;;1.88;;
21943;SDS011;11136;48.778;9.126;2023-02-25T17:33:54;3.10;;;1.63;;
21943;SDS011;11136;48.778;9.126;2023-02-25T17:36:20;6.18;;;2.28;;
21943;SDS011;11136;48.778;9.126;2023-02-25T17:41:19;4.40;;;2.00;;
21943;SDS011;11136;48.778;9.126;2023-02-25T17:43:46;3.53;;;1.40;;
21943;SDS011;11136;48.778;9.126;2023-02-25T17:46:13;1.27;;;1.17;;
21943;SDS011;11136;48.778;9.126;2023-02-25T17:49:01;2.55;;;1.00;;
21943;SDS011;11136;48.778;9.126;2023-02-25T17:51:45;2.47;;;1.40;;
21943;SDS011;11136;48.778;9.126;2023-02-25T17:54:16;2.93;;;1.33;;
21943;SDS011;11136;48.778;9.126;2023-02-25T17:56:44;1.63;;;1.02;;
21943;SDS011;11136;48.778;9.126;2023-02-25T17:59:29;1.58;;;1.00;;
21943;SDS011;11136;48.778;9.126;2023-02-25T18:07:38;1.23;;;1.13;;
21943;SDS011;11136;48.778;9.126;2023-02-25T18:10:39;3.00;;;1.40;;
21943;SDS011;11136;48.778;9.126;2023-02-25T18:15:24;1.10;;;0.90;;
21943;SDS011;11136;48.778;9.126;2023-02-25T18:17:56;1.98;;;1.35;;
21943;SDS011;11136;48.778;9.126;2023-02-25T18:20:33;1.85;;;1.00;;
21943;SDS011;11136;48.778;9.126;2023-02-25T18:25:42;1.55;;;1.10;;
21943;SDS011;11136;48.778;9.126;2023-02-25T18:28:20;1.33;;;1.23;;
21943;SDS011;11136;48.778;9.126;2023-02-25T18:30:47;1.67;;;1.00;;
21943;SDS011;11136;48.778;9.126;2023-02-25T18:33:13;1.77;;;1.20;;
21943;SDS011;11136;48.778;9.126;2023-02-25T18:35:41;4.22;;;2.13;;
21943;SDS011;11136;48.778;9.126;2023-02-25T18:38:14;3.10;;;1.92;;
21943;SDS011;11136;48.778;9.126;2023-02-25T18:40:43;3.40;;;1.73;;
21943;SDS011;11136;48.778;9.126;2023-02-25T18:43:16;3.30;;;1.60;;
21943;SDS011;11136;48.778;9.126;2023-02-25T18:45:43;1.98;;;1.40;;
21943;SDS011;11136;48.778;9.126;2023-02-25T18:48:10;4.57;;;1.40;;
21943;SDS011;11136;48.778;9.126;2023-02-25T18:50:36;5.40;;;2.20;;
21943;SDS011;11136;48.778;9.126;2023-02-25T18:53:05;6.30;;;2.15;;
21943;SDS011;11136;48.778;9.126;2023-02-25T18:55:44;3.65;;;1.83;;
21943;SDS011;11136;48.778;9.126;2023-02-25T18:58:12;4.25;;;1.52;;
21943;SDS011;11136;48.778;9.126;2023-02-25T19:00:40;4.70;;;2.03;;
21943;SDS011;11136;48.778;9.126;2023-02-25T19:03:09;2.28;;;1.55;;
21943;SDS011;11136;48.778;9.126;2023-02-25T19:05:38;2.38;;;1.45;;
21943;SDS011;11136;48.778;9.126;2023-02-25T19:08:14;3.90;;;1.80;;
21943;SDS011;11136;48.778;9.126;2023-02-25T19:10:41;3.13;;;1.95;;
21943;SDS011;11136;48.778;9.126;2023-02-25T19:15:42;3.90;;;2.10;;
21943;SDS011;11136;48.778;9.126;2023-02-25T19:18:11;4.28;;;1.75;;